createdAt,value
2017-06-10T05:56:51.062Z,35
2017-06-10T05:57:52.498Z,35
2017-06-10T05:58:53.924Z,40
2017-06-10T05:59:55.359Z,40
2017-06-10T06:00:56.791Z,40
2017-06-10T06:01:58.218Z,40
2017-06-10T06:02:59.652Z,40
2017-06-10T06:04:01.079Z,40
2017-06-10T06:05:02.509Z,40
2017-06-10T06:06:03.933Z,40
2017-06-10T06:07:05.360Z,40
2017-06-10T06:08:06.785Z,40
2017-06-10T06:09:08.216Z,40
2017-06-10T06:10:09.663Z,40
2017-06-10T06:11:11.092Z,40
2017-06-10T06:12:12.520Z,40
2017-06-10T06:13:13.954Z,40
2017-06-10T06:14:15.378Z,40
2017-06-10T06:15:16.801Z,40
2017-06-10T06:16:18.229Z,40
2017-06-10T06:17:19.662Z,40
2017-06-10T06:18:21.090Z,40
2017-06-10T06:19:22.518Z,40
2017-06-10T06:20:23.941Z,40
2017-06-10T06:21:25.368Z,40
2017-06-10T06:22:26.794Z,40
2017-06-10T06:23:28.220Z,40
2017-06-10T06:24:29.657Z,40
2017-06-10T06:25:31.074Z,40
2017-06-10T06:26:32.505Z,40
2017-06-10T06:27:33.936Z,40
2017-06-10T06:28:35.372Z,40
2017-06-10T06:29:36.798Z,40
2017-06-10T06:30:38.225Z,40
2017-06-10T06:31:39.657Z,40
2017-06-10T06:32:41.087Z,40
2017-06-10T06:33:42.523Z,40
2017-06-10T06:34:45.435Z,40
2017-06-10T06:35:46.870Z,40
2017-06-10T06:36:48.294Z,40
2017-06-10T06:37:49.723Z,40
2017-06-10T06:38:51.153Z,40
2017-06-10T06:39:52.581Z,45
2017-06-10T06:40:54.011Z,45
2017-06-10T06:41:55.436Z,45
2017-06-10T06:42:56.871Z,45
2017-06-10T06:43:58.300Z,45
2017-06-10T06:44:59.734Z,45
2017-06-10T06:46:01.163Z,45
2017-06-10T06:47:02.597Z,45
2017-06-10T06:48:04.033Z,45
2017-06-10T06:49:05.458Z,45
2017-06-10T06:50:06.878Z,45
2017-06-10T06:51:08.311Z,45
2017-06-10T06:52:09.738Z,45
2017-06-10T06:53:11.169Z,45
2017-06-10T06:54:12.593Z,45
2017-06-10T06:55:14.036Z,45
2017-06-10T06:56:15.468Z,45
2017-06-10T06:57:16.898Z,50
2017-06-10T06:58:18.328Z,50
2017-06-10T06:59:19.761Z,45
2017-06-10T07:00:21.194Z,45
2017-06-10T07:01:22.629Z,45
2017-06-10T07:02:24.068Z,45
2017-06-10T07:03:25.505Z,45
2017-06-10T07:04:26.944Z,45
2017-06-10T07:05:28.375Z,45
2017-06-10T07:06:29.811Z,45
2017-06-10T07:07:31.235Z,50
2017-06-10T07:08:32.669Z,45
2017-06-10T07:09:34.097Z,50
2017-06-10T07:10:35.526Z,50
2017-06-10T07:11:36.955Z,50
2017-06-10T07:12:38.379Z,50
2017-06-10T07:13:39.813Z,50
2017-06-10T07:14:41.243Z,50
2017-06-10T07:15:42.683Z,50
2017-06-10T07:16:44.121Z,50
2017-06-10T07:17:45.559Z,50
2017-06-10T07:18:46.999Z,50
2017-06-10T07:19:48.428Z,50
2017-06-10T07:20:49.863Z,50
2017-06-10T07:21:51.292Z,50
2017-06-10T07:22:52.721Z,55
2017-06-10T07:23:54.145Z,55
2017-06-10T07:24:55.569Z,55
2017-06-10T07:25:57.003Z,55
2017-06-10T07:26:58.432Z,55
2017-06-10T07:27:59.853Z,55
2017-06-10T07:29:01.292Z,55
2017-06-10T07:30:02.722Z,55
2017-06-10T07:31:04.152Z,55
2017-06-10T07:32:05.579Z,55
2017-06-10T07:33:07.010Z,55
2017-06-10T07:34:08.445Z,55
2017-06-10T07:35:09.881Z,55
2017-06-10T07:36:11.321Z,55
2017-06-10T07:37:12.782Z,50
2017-06-10T07:38:14.225Z,55
2017-06-10T07:39:15.646Z,55
2017-06-10T07:40:17.078Z,55
2017-06-10T07:41:18.513Z,55
2017-06-10T07:42:19.944Z,55
2017-06-10T07:43:21.377Z,55
2017-06-10T07:44:22.899Z,60
2017-06-10T07:45:24.369Z,60
2017-06-10T07:46:25.799Z,60
2017-06-10T07:47:27.233Z,60
2017-06-10T07:48:28.652Z,60
2017-06-10T07:49:30.089Z,60
2017-06-10T07:50:31.528Z,60
2017-06-10T07:51:32.957Z,55
2017-06-10T07:52:34.446Z,55
2017-06-10T07:53:35.880Z,55
2017-06-10T07:54:37.309Z,55
2017-06-10T07:55:38.797Z,55
2017-06-10T07:56:40.226Z,55
2017-06-10T07:57:41.651Z,55
2017-06-10T07:58:43.082Z,55
2017-06-10T07:59:44.516Z,55
2017-06-10T08:00:45.949Z,55
2017-06-10T08:01:47.380Z,55
2017-06-10T08:02:48.811Z,55
2017-06-10T08:03:50.326Z,55
2017-06-10T08:04:51.753Z,55
2017-06-10T08:05:53.183Z,55
2017-06-10T08:06:54.684Z,55
2017-06-10T08:07:56.116Z,55
2017-06-10T08:08:57.546Z,55
2017-06-10T08:09:58.974Z,60
2017-06-10T08:11:00.413Z,60
2017-06-10T08:12:01.845Z,60
2017-06-10T08:13:03.278Z,60
2017-06-10T08:14:04.752Z,60
2017-06-10T08:15:06.187Z,60
2017-06-10T08:16:07.615Z,60
2017-06-10T08:17:09.048Z,60
2017-06-10T08:18:10.480Z,60
2017-06-10T08:19:11.908Z,60
2017-06-10T08:20:13.344Z,60
2017-06-10T08:21:14.922Z,60
2017-06-10T08:22:16.361Z,60
2017-06-10T08:23:17.792Z,60
2017-06-10T08:24:19.222Z,60
2017-06-10T08:25:20.685Z,65
2017-06-10T08:26:22.132Z,60
2017-06-10T08:27:23.579Z,65
2017-06-10T08:28:24.998Z,65
2017-06-10T08:29:26.432Z,65
2017-06-10T08:30:27.864Z,65
2017-06-10T08:31:29.295Z,65
2017-06-10T08:32:30.728Z,65
2017-06-10T08:33:32.208Z,65
2017-06-10T08:34:33.645Z,65
2017-06-10T08:35:35.087Z,70
2017-06-10T08:36:36.511Z,70
2017-06-10T08:37:37.951Z,75
2017-06-10T08:38:39.377Z,80
2017-06-10T08:39:40.824Z,80
2017-06-10T08:40:42.277Z,80
2017-06-10T08:41:43.714Z,80
2017-06-10T08:42:45.151Z,75
2017-06-10T08:43:46.587Z,85
2017-06-10T08:44:48.022Z,85
2017-06-10T08:45:49.450Z,90
2017-06-10T08:46:50.889Z,80
2017-06-10T08:47:52.325Z,80
2017-06-10T08:48:53.758Z,70
2017-06-10T08:49:55.195Z,80
2017-06-10T08:50:56.622Z,70
2017-06-10T08:51:58.065Z,70
2017-06-10T08:52:59.493Z,75
2017-06-10T08:54:00.929Z,80
2017-06-10T08:55:02.359Z,65
2017-06-10T08:56:03.793Z,70
2017-06-10T08:57:05.233Z,70
2017-06-10T08:58:06.672Z,70
2017-06-10T08:59:08.098Z,70
2017-06-10T09:00:09.528Z,75
2017-06-10T09:01:10.963Z,75
2017-06-10T09:02:12.430Z,70
2017-06-10T09:03:13.867Z,70
2017-06-10T09:04:15.299Z,70
2017-06-10T09:05:16.732Z,70
2017-06-10T09:06:18.161Z,70
2017-06-10T09:07:19.596Z,75
2017-06-10T09:08:21.032Z,70
2017-06-10T09:09:22.462Z,75
2017-06-10T09:10:23.891Z,75
2017-06-10T09:11:25.319Z,75
2017-06-10T09:12:26.756Z,75
2017-06-10T09:13:28.191Z,75
2017-06-10T09:14:29.624Z,80
2017-06-10T09:15:31.061Z,85
2017-06-10T09:16:32.501Z,90
2017-06-10T09:17:33.946Z,85
2017-06-10T09:18:35.389Z,90
2017-06-10T09:19:36.823Z,90
2017-06-10T09:20:38.265Z,100
2017-06-10T09:21:39.690Z,100
2017-06-10T09:22:41.121Z,95
2017-06-10T09:23:42.562Z,95
2017-06-10T09:24:43.999Z,95
2017-06-10T09:25:45.427Z,105
2017-06-10T09:26:46.859Z,115
2017-06-10T09:27:48.302Z,130
2017-06-10T09:28:49.734Z,135
2017-06-10T09:29:51.168Z,120
2017-06-10T09:30:52.603Z,115
2017-06-10T09:31:54.043Z,125
2017-06-10T09:32:55.484Z,130
2017-06-10T09:33:56.922Z,115
2017-06-10T09:34:58.371Z,125
2017-06-10T09:35:59.806Z,125
2017-06-10T09:37:01.238Z,120
2017-06-10T09:38:02.674Z,120
2017-06-10T09:39:04.110Z,115
2017-06-10T09:40:05.544Z,115
2017-06-10T09:41:06.987Z,115
2017-06-10T09:42:08.425Z,125
2017-06-10T09:43:09.857Z,125
2017-06-10T09:44:11.291Z,100
2017-06-10T09:45:12.737Z,105
2017-06-10T09:46:14.169Z,110
2017-06-10T09:47:15.606Z,115
2017-06-10T09:48:17.040Z,115
2017-06-10T09:49:18.473Z,105
2017-06-10T09:50:19.903Z,105
2017-06-10T09:51:21.342Z,100
2017-06-10T09:52:22.772Z,105
2017-06-10T09:53:24.213Z,100
2017-06-10T09:54:25.654Z,105
2017-06-10T09:55:27.084Z,115
2017-06-10T09:56:28.521Z,135
2017-06-10T09:57:29.957Z,145
2017-06-10T09:58:31.392Z,140
2017-06-10T09:59:32.830Z,140
2017-06-10T10:00:34.267Z,125
2017-06-10T10:01:35.702Z,100
2017-06-10T10:02:37.134Z,90
2017-06-10T10:03:38.565Z,95
2017-06-10T10:04:40.003Z,105
2017-06-10T10:05:41.431Z,100
2017-06-10T10:06:42.868Z,100
2017-06-10T10:07:44.304Z,105
2017-06-10T10:08:45.736Z,110
2017-06-10T10:09:47.174Z,105
2017-06-10T10:10:48.605Z,105
2017-06-10T10:11:50.040Z,80
2017-06-10T10:12:51.484Z,100
2017-06-10T10:13:52.917Z,100
2017-06-10T10:14:54.355Z,100
2017-06-10T10:15:55.786Z,100
2017-06-10T10:16:57.215Z,100
2017-06-10T10:17:58.646Z,100
2017-06-10T10:19:00.084Z,105
2017-06-10T10:20:01.517Z,110
2017-06-10T10:21:02.955Z,120
2017-06-10T10:22:04.391Z,150
2017-06-10T10:23:05.837Z,60
2017-06-10T10:24:07.266Z,195
2017-06-10T10:25:08.714Z,205
2017-06-10T10:26:10.152Z,205
2017-06-10T10:27:11.589Z,205
2017-06-10T10:28:13.062Z,190
2017-06-10T10:29:14.489Z,200
2017-06-10T10:30:15.933Z,200
2017-06-10T10:31:17.380Z,200
2017-06-10T10:32:18.817Z,195
2017-06-10T10:33:20.250Z,205
2017-06-10T10:34:21.684Z,215
2017-06-10T10:35:23.125Z,215
2017-06-10T10:36:24.583Z,220
2017-06-10T10:37:25.992Z,210
2017-06-10T10:38:27.453Z,205
2017-06-10T10:39:28.867Z,205
2017-06-10T10:40:30.299Z,210
2017-06-10T10:41:31.739Z,205
2017-06-10T10:42:33.175Z,195
2017-06-10T10:43:34.661Z,190
2017-06-10T10:44:36.098Z,185
2017-06-10T10:45:37.530Z,185
2017-06-10T10:46:38.968Z,185
2017-06-10T10:47:40.411Z,180
2017-06-10T10:48:41.858Z,175
2017-06-10T10:49:43.289Z,170
2017-06-10T10:50:44.731Z,180
2017-06-10T10:51:46.164Z,190
2017-06-10T10:52:47.601Z,195
2017-06-10T10:53:49.041Z,200
2017-06-10T10:54:50.492Z,200
2017-06-10T10:55:51.940Z,200
2017-06-10T10:56:53.369Z,195
2017-06-10T10:57:54.816Z,195
2017-06-10T10:58:56.291Z,195
2017-06-10T10:59:57.721Z,200
2017-06-10T11:00:59.165Z,195
2017-06-10T11:02:00.607Z,195
2017-06-10T11:03:02.035Z,205
2017-06-10T11:04:03.470Z,205
2017-06-10T11:05:04.902Z,230
2017-06-10T11:06:06.334Z,200
2017-06-10T11:07:07.791Z,205
2017-06-10T11:08:09.220Z,235
2017-06-10T11:09:10.661Z,220
2017-06-10T11:10:12.102Z,210
2017-06-10T11:11:13.541Z,215
2017-06-10T11:12:14.986Z,220
2017-06-10T11:13:16.421Z,230
2017-06-10T11:14:17.854Z,225
2017-06-10T11:15:19.297Z,210
2017-06-10T11:16:20.736Z,210
2017-06-10T11:17:22.172Z,245
2017-06-10T11:18:23.605Z,215
2017-06-10T11:19:25.045Z,230
2017-06-10T11:20:26.477Z,250
2017-06-10T11:21:27.920Z,260
2017-06-10T11:22:29.352Z,240
2017-06-10T11:23:30.784Z,255
2017-06-10T11:24:32.226Z,255
2017-06-10T11:25:33.662Z,280
2017-06-10T11:26:35.086Z,285
2017-06-10T11:27:36.521Z,250
2017-06-10T11:28:37.959Z,230
2017-06-10T11:29:39.398Z,255
2017-06-10T11:30:40.843Z,250
2017-06-10T11:31:42.273Z,270
2017-06-10T11:32:43.714Z,285
2017-06-10T11:33:45.158Z,295
2017-06-10T11:34:46.593Z,295
2017-06-10T11:35:48.038Z,295
2017-06-10T11:36:49.480Z,265
2017-06-10T11:37:50.920Z,275
2017-06-10T11:38:52.359Z,270
2017-06-10T11:39:53.799Z,285
2017-06-10T11:40:55.238Z,270
2017-06-10T11:41:56.673Z,255
2017-06-10T11:42:58.111Z,265
2017-06-10T11:43:59.546Z,270
2017-06-10T11:45:00.990Z,290
2017-06-10T11:46:02.426Z,280
2017-06-10T11:47:03.868Z,260
2017-06-10T11:48:05.301Z,300
2017-06-10T11:49:06.747Z,255
2017-06-10T11:50:08.184Z,255
2017-06-10T11:51:09.632Z,255
2017-06-10T11:52:11.067Z,265
2017-06-10T11:53:12.508Z,270
2017-06-10T11:54:13.939Z,305
2017-06-10T11:55:15.381Z,315
2017-06-10T11:56:16.809Z,300
2017-06-10T11:57:18.245Z,260
2017-06-10T11:58:19.678Z,260
2017-06-10T11:59:21.119Z,260
2017-06-10T12:00:22.550Z,260
2017-06-10T12:01:23.995Z,265
2017-06-10T12:02:25.431Z,245
2017-06-10T12:03:26.870Z,255
2017-06-10T12:04:28.316Z,275
2017-06-10T12:05:29.738Z,265
2017-06-10T12:06:31.177Z,245
2017-06-10T12:07:32.610Z,245
2017-06-10T12:08:34.050Z,240
2017-06-10T12:09:35.483Z,250
2017-06-10T12:10:36.920Z,245
2017-06-10T12:11:38.362Z,240
2017-06-10T12:12:39.803Z,280
2017-06-10T12:13:41.244Z,290
2017-06-10T12:14:42.681Z,295
2017-06-10T12:15:44.119Z,305
2017-06-10T12:16:45.558Z,305
2017-06-10T12:17:46.991Z,255
2017-06-10T12:18:48.431Z,220
2017-06-10T12:19:49.867Z,260
2017-06-10T12:20:51.303Z,270
2017-06-10T12:21:52.740Z,275
2017-06-10T12:22:54.189Z,265
2017-06-10T12:23:55.636Z,255
2017-06-10T12:24:57.084Z,245
2017-06-10T12:25:58.507Z,260
2017-06-10T12:26:59.942Z,265
2017-06-10T12:28:01.379Z,305
2017-06-10T12:29:02.828Z,310
2017-06-10T12:30:04.264Z,310
2017-06-10T12:31:05.696Z,305
2017-06-10T12:32:07.130Z,290
2017-06-10T12:33:08.571Z,275
2017-06-10T12:34:10.014Z,255
2017-06-10T12:35:11.451Z,250
2017-06-10T12:36:12.886Z,255
2017-06-10T12:37:14.325Z,260
2017-06-10T12:38:15.753Z,230
2017-06-10T12:39:17.189Z,275
2017-06-10T12:40:18.641Z,290
2017-06-10T12:41:20.074Z,305
2017-06-10T12:42:21.512Z,240
2017-06-10T12:43:22.948Z,220
2017-06-10T12:44:24.381Z,200
2017-06-10T12:45:25.821Z,185
2017-06-10T12:46:27.257Z,155
2017-06-10T12:47:28.725Z,155
2017-06-10T12:48:30.134Z,180
2017-06-10T12:49:31.574Z,200
2017-06-10T12:50:33.009Z,200
2017-06-10T12:51:34.451Z,235
2017-06-10T12:52:35.881Z,255
2017-06-10T12:53:37.324Z,275
2017-06-10T12:54:38.768Z,275
2017-06-10T12:55:40.204Z,225
2017-06-10T12:56:41.644Z,220
2017-06-10T12:57:43.080Z,275
2017-06-10T12:58:44.518Z,285
2017-06-10T12:59:45.952Z,240
2017-06-10T13:00:47.392Z,230
2017-06-10T13:01:48.828Z,240
2017-06-10T13:02:50.285Z,255
2017-06-10T13:03:51.706Z,300
2017-06-10T13:04:53.139Z,240
2017-06-10T13:05:54.575Z,240
2017-06-10T13:06:56.023Z,200
2017-06-10T13:07:57.465Z,175
2017-06-10T13:08:58.906Z,200
2017-06-10T13:10:00.336Z,265
2017-06-10T13:11:01.784Z,220
2017-06-10T13:12:03.212Z,220
2017-06-10T13:13:04.648Z,260
2017-06-10T13:14:06.093Z,265
2017-06-10T13:15:07.523Z,255
2017-06-10T13:16:08.964Z,245
2017-06-10T13:17:10.402Z,295
2017-06-10T13:18:11.868Z,280
2017-06-10T13:19:13.285Z,285
2017-06-10T13:20:14.720Z,265
2017-06-10T13:21:16.157Z,265
2017-06-10T13:22:17.603Z,275
2017-06-10T13:23:19.041Z,315
2017-06-10T13:24:20.484Z,290
2017-06-10T13:25:21.937Z,270
2017-06-10T13:26:23.365Z,270
2017-06-10T13:27:24.801Z,290
2017-06-10T13:28:26.238Z,310
2017-06-10T13:29:27.681Z,305
2017-06-10T13:30:29.120Z,300
2017-06-10T13:31:30.549Z,230
2017-06-10T13:32:31.989Z,230
2017-06-10T13:33:33.427Z,250
2017-06-10T13:34:34.857Z,280
2017-06-10T13:35:36.298Z,290
2017-06-10T13:36:37.741Z,280
2017-06-10T13:37:39.176Z,260
2017-06-10T13:38:40.667Z,250
2017-06-10T13:39:42.112Z,250
2017-06-10T13:40:43.551Z,250
2017-06-10T13:41:44.988Z,235
2017-06-10T13:42:46.431Z,245
2017-06-10T13:43:47.876Z,240
2017-06-10T13:44:49.307Z,250
2017-06-10T13:45:50.761Z,260
2017-06-10T13:46:52.196Z,250
2017-06-10T13:47:53.631Z,270
2017-06-10T13:48:55.073Z,310
2017-06-10T13:49:56.510Z,305
2017-06-10T13:50:57.949Z,395
2017-06-10T13:51:59.392Z,390
2017-06-10T13:53:00.829Z,375
2017-06-10T13:54:02.288Z,355
2017-06-10T13:55:03.726Z,245
2017-06-10T13:56:05.169Z,240
2017-06-10T13:57:06.626Z,245
2017-06-10T13:58:08.061Z,245
2017-06-10T13:59:09.498Z,265
2017-06-10T14:00:10.933Z,235
2017-06-10T14:01:12.381Z,230
2017-06-10T14:02:13.810Z,215
2017-06-10T14:03:15.246Z,195
2017-06-10T14:04:16.743Z,225
2017-06-10T14:05:18.188Z,240
2017-06-10T14:06:19.626Z,240
2017-06-10T14:07:21.066Z,225
2017-06-10T14:08:22.504Z,240
2017-06-10T14:09:23.941Z,230
2017-06-10T14:10:25.377Z,205
2017-06-10T14:11:26.815Z,185
2017-06-10T14:12:28.260Z,175
2017-06-10T14:13:29.702Z,205
2017-06-10T14:14:31.131Z,240
2017-06-10T14:15:32.611Z,250
2017-06-10T14:16:34.060Z,260
2017-06-10T14:17:35.497Z,270
2017-06-10T14:18:36.952Z,240
2017-06-10T14:19:38.417Z,220
2017-06-10T14:20:39.852Z,215
2017-06-10T14:21:41.301Z,205
2017-06-10T14:22:42.735Z,205
2017-06-10T14:23:44.172Z,200
2017-06-10T14:24:45.607Z,210
2017-06-10T14:25:47.052Z,210
2017-06-10T14:26:48.494Z,210
2017-06-10T14:27:49.924Z,195
2017-06-10T14:28:51.364Z,195
2017-06-10T14:29:52.803Z,220
2017-06-10T14:30:54.250Z,220
2017-06-10T14:31:55.686Z,200
2017-06-10T14:32:57.118Z,195
2017-06-10T14:33:58.559Z,185
2017-06-10T14:34:59.995Z,145
2017-06-10T14:36:01.419Z,155
2017-06-10T14:37:02.876Z,180
2017-06-10T14:38:04.319Z,180
2017-06-10T14:39:05.757Z,200
2017-06-10T14:40:07.201Z,220
2017-06-10T14:41:08.714Z,220
2017-06-10T14:42:10.158Z,225
2017-06-10T14:43:11.592Z,220
2017-06-10T14:44:13.049Z,235
2017-06-10T14:45:14.497Z,250
2017-06-10T14:46:15.942Z,245
2017-06-10T14:47:17.379Z,220
2017-06-10T14:48:18.814Z,185
2017-06-10T14:49:20.255Z,175
2017-06-10T14:50:21.695Z,175
2017-06-10T14:51:23.130Z,170
2017-06-10T14:52:24.568Z,160
2017-06-10T14:53:25.999Z,155
2017-06-10T14:54:27.438Z,145
2017-06-10T14:55:28.893Z,140
2017-06-10T14:56:30.333Z,150
2017-06-10T14:57:31.772Z,150
2017-06-10T14:58:33.214Z,150
2017-06-10T14:59:34.744Z,160
2017-06-10T15:00:36.178Z,180
2017-06-10T15:01:37.621Z,170
2017-06-10T15:02:39.059Z,165
2017-06-10T15:03:40.498Z,160
2017-06-10T15:04:41.945Z,150
2017-06-10T15:05:43.377Z,125
2017-06-10T15:06:44.816Z,115
2017-06-10T15:07:46.265Z,120
2017-06-10T15:08:47.699Z,120
2017-06-10T15:09:49.696Z,125
2017-06-10T15:10:51.129Z,115
2017-06-10T15:11:52.570Z,115
2017-06-10T15:12:54.004Z,130
2017-06-10T15:13:55.444Z,145
2017-06-10T15:14:56.871Z,150
2017-06-10T15:15:58.316Z,155
2017-06-10T15:16:59.749Z,155
2017-06-10T15:18:01.195Z,165
2017-06-10T15:19:02.633Z,170
2017-06-10T15:20:04.072Z,170
2017-06-10T15:21:05.509Z,170
2017-06-10T15:22:06.946Z,175
2017-06-10T15:23:08.386Z,170
2017-06-10T15:24:09.827Z,170
2017-06-10T15:25:11.265Z,175
2017-06-10T15:26:12.698Z,170
2017-06-10T15:27:14.143Z,170
2017-06-10T15:28:15.580Z,170
2017-06-10T15:29:17.012Z,165
2017-06-10T15:30:18.446Z,160
2017-06-10T15:31:19.883Z,150
2017-06-10T15:32:21.311Z,155
2017-06-10T15:33:22.751Z,150
2017-06-10T15:34:24.187Z,155
2017-06-10T15:35:25.623Z,145
2017-06-10T15:36:27.063Z,165
2017-06-10T15:37:28.504Z,150
2017-06-10T15:38:29.940Z,150
2017-06-10T15:39:31.382Z,155
2017-06-10T15:40:32.823Z,155
2017-06-10T15:41:34.264Z,150
2017-06-10T15:42:35.706Z,130
2017-06-10T15:43:37.139Z,130
2017-06-10T15:44:38.569Z,125
2017-06-10T15:45:40.012Z,115
2017-06-10T15:46:41.451Z,100
2017-06-10T15:47:42.893Z,95
2017-06-10T15:48:44.326Z,95
2017-06-10T15:49:45.760Z,90
2017-06-10T15:50:47.198Z,90
2017-06-10T15:51:48.639Z,90
2017-06-10T15:52:50.081Z,90
2017-06-10T15:53:51.511Z,90
2017-06-10T15:54:52.949Z,90
2017-06-10T15:55:54.392Z,85
2017-06-10T15:56:55.823Z,80
2017-06-10T15:57:57.262Z,85
2017-06-10T15:58:58.687Z,100
2017-06-10T16:00:00.136Z,80
2017-06-10T16:01:01.578Z,75
2017-06-10T16:02:03.013Z,75
2017-06-10T16:03:04.454Z,80
2017-06-10T16:04:05.893Z,80
2017-06-10T16:05:07.335Z,80
2017-06-10T16:06:08.760Z,80
2017-06-10T16:07:10.197Z,75
2017-06-10T16:08:11.630Z,70
2017-06-10T16:09:13.061Z,70
2017-06-10T16:10:14.494Z,70
2017-06-10T16:11:15.928Z,70
2017-06-10T16:12:17.357Z,70
2017-06-10T16:13:18.809Z,70
2017-06-10T16:14:20.242Z,70
2017-06-10T16:15:21.674Z,70
2017-06-10T16:16:23.112Z,70
2017-06-10T16:17:24.561Z,70
2017-06-10T16:18:25.994Z,65
2017-06-10T16:19:27.421Z,65
2017-06-10T16:20:28.852Z,55
2017-06-10T16:21:30.290Z,65
2017-06-10T16:22:31.725Z,65
2017-06-10T16:23:33.164Z,65
2017-06-10T16:24:34.607Z,70
2017-06-10T16:25:36.041Z,60
2017-06-10T16:26:37.484Z,55
2017-06-10T16:27:38.920Z,65
2017-06-10T16:28:40.360Z,60
2017-06-10T16:29:41.789Z,65
2017-06-10T16:30:43.225Z,65
2017-06-10T16:31:44.662Z,60
2017-06-10T16:32:46.096Z,65
2017-06-10T16:33:47.528Z,60
2017-06-10T16:34:48.997Z,60
2017-06-10T16:35:50.440Z,60
2017-06-10T16:36:51.875Z,60
2017-06-10T16:37:53.306Z,60
2017-06-10T16:38:54.743Z,60
2017-06-10T16:39:56.179Z,60
2017-06-10T16:40:57.607Z,60
2017-06-10T16:41:59.047Z,60
2017-06-10T16:43:00.486Z,60
2017-06-10T16:44:01.920Z,60
2017-06-10T16:45:03.354Z,55
2017-06-10T16:46:04.791Z,55
2017-06-10T16:47:06.229Z,55
2017-06-10T16:48:07.667Z,55
2017-06-10T16:49:09.099Z,55
2017-06-10T16:50:10.552Z,55
2017-06-10T16:51:11.982Z,55
2017-06-10T16:52:13.412Z,55
2017-06-10T16:53:14.849Z,45
2017-06-10T16:54:16.285Z,55
2017-06-10T16:55:17.717Z,55
2017-06-10T16:56:19.156Z,55
2017-06-10T16:57:20.582Z,50
2017-06-10T16:58:22.014Z,45
2017-06-10T16:59:23.455Z,45
2017-06-10T17:00:24.896Z,50
2017-06-10T17:01:26.325Z,50
2017-06-10T17:02:27.756Z,50
2017-06-10T17:03:29.194Z,50
2017-06-10T17:04:30.626Z,50
2017-06-10T17:05:32.064Z,50
2017-06-10T17:06:33.492Z,50
2017-06-10T17:07:34.929Z,50
2017-06-10T17:08:36.366Z,50
2017-06-10T17:09:37.807Z,50
2017-06-10T17:10:39.251Z,50
2017-06-10T17:11:40.683Z,50
2017-06-10T17:12:42.119Z,50
2017-06-10T17:13:43.559Z,50
2017-06-10T17:14:44.996Z,45
2017-06-10T17:15:46.424Z,50
2017-06-10T17:16:47.855Z,45
2017-06-10T17:17:49.290Z,45
2017-06-10T17:18:50.730Z,45
2017-06-10T17:19:52.168Z,45
2017-06-10T17:20:53.602Z,45
2017-06-10T17:21:55.026Z,45
2017-06-10T17:22:56.467Z,45
2017-06-10T17:23:57.907Z,45
2017-06-10T17:24:59.348Z,45
2017-06-10T17:26:00.776Z,40
2017-06-10T17:27:02.209Z,40
2017-06-10T17:28:03.652Z,25
2017-06-10T17:29:05.080Z,40
2017-06-10T17:30:06.514Z,40
2017-06-10T17:31:07.945Z,40
2017-06-10T17:32:09.376Z,40
2017-06-10T17:33:10.809Z,40
2017-06-10T17:34:12.249Z,40
2017-06-10T17:35:13.687Z,40
2017-06-10T17:36:15.109Z,40
2017-06-10T17:37:16.553Z,40
2017-06-10T17:38:18.001Z,40
2017-06-10T17:39:19.434Z,35
2017-06-10T17:40:20.873Z,35
2017-06-10T17:41:22.302Z,35
2017-06-10T17:42:23.729Z,35
2017-06-10T17:43:25.165Z,35
2017-06-10T17:44:26.597Z,35
2017-06-10T17:45:28.032Z,35
2017-06-10T17:46:29.466Z,35
2017-06-10T17:47:30.897Z,35
2017-06-10T17:48:32.327Z,35
2017-06-10T17:49:33.769Z,35
2017-06-10T17:50:35.209Z,35
2017-06-10T17:51:36.638Z,35
2017-06-10T17:52:38.076Z,30
2017-06-10T17:53:39.509Z,30
2017-06-10T17:54:40.944Z,30
2017-06-10T17:55:42.387Z,30
2017-06-10T17:56:43.826Z,30
2017-06-10T17:57:45.262Z,30
2017-06-10T17:58:46.691Z,30
2017-06-10T17:59:48.131Z,30
2017-06-10T18:00:49.574Z,30
2017-06-10T18:01:51.009Z,30
2017-06-10T18:02:52.439Z,30
2017-06-10T18:03:53.867Z,30
2017-06-10T18:04:55.308Z,30
2017-06-10T18:05:56.740Z,30
2017-06-10T18:06:58.173Z,30
2017-06-10T18:07:59.602Z,25
2017-06-10T18:09:01.039Z,25
2017-06-10T18:10:02.482Z,25
2017-06-10T18:11:03.920Z,25
2017-06-10T18:12:05.352Z,25
2017-06-10T18:13:06.785Z,25
2017-06-10T18:14:08.226Z,25
2017-06-10T18:15:09.664Z,25
2017-06-10T18:16:11.100Z,25
2017-06-10T18:17:12.539Z,25
2017-06-10T18:18:13.976Z,25
2017-06-10T18:19:15.416Z,25
2017-06-10T18:20:16.863Z,25
2017-06-10T18:21:18.293Z,25
2017-06-10T18:22:19.729Z,25
2017-06-10T18:23:21.168Z,20
2017-06-10T18:24:22.608Z,20
2017-06-10T18:25:24.033Z,20
2017-06-10T18:26:25.465Z,20
2017-06-10T18:27:26.903Z,20
2017-06-10T18:28:28.336Z,20
2017-06-10T18:29:29.766Z,20
2017-06-10T18:30:31.209Z,20
2017-06-10T18:31:32.656Z,20
2017-06-10T18:32:34.100Z,20
2017-06-10T18:33:35.535Z,20
2017-06-10T18:34:36.977Z,20
2017-06-10T18:35:38.407Z,20
2017-06-10T18:36:39.841Z,20
2017-06-10T18:37:41.303Z,20
2017-06-10T18:38:42.737Z,15
2017-06-10T18:39:44.231Z,15
2017-06-10T18:40:45.666Z,15
2017-06-10T18:41:47.105Z,5
2017-06-10T18:42:48.539Z,15
2017-06-10T18:43:49.985Z,15
2017-06-10T18:44:51.429Z,15
2017-06-10T18:45:52.867Z,15
2017-06-10T18:46:54.297Z,15
2017-06-10T18:47:55.734Z,15
2017-06-10T18:48:57.166Z,15
2017-06-10T18:49:58.610Z,15
2017-06-10T18:51:00.055Z,15
2017-06-10T18:52:01.489Z,15
2017-06-10T18:53:03.011Z,15
2017-06-10T18:54:04.445Z,15
2017-06-10T18:55:05.888Z,15
2017-06-10T18:56:07.318Z,15
2017-06-10T18:57:08.760Z,10
2017-06-10T18:58:10.201Z,10
2017-06-10T18:59:11.640Z,10
2017-06-10T19:00:13.074Z,10
2017-06-10T19:01:14.510Z,10
2017-06-10T19:02:15.939Z,10
2017-06-10T19:03:17.391Z,10
2017-06-10T19:04:18.828Z,10
2017-06-10T19:05:20.268Z,10
2017-06-10T19:06:21.711Z,10
2017-06-10T19:07:23.143Z,10
2017-06-10T19:08:24.579Z,10
2017-06-10T19:09:26.007Z,10
2017-06-10T19:10:27.447Z,10
2017-06-10T19:11:28.903Z,10
2017-06-10T19:12:30.346Z,5
2017-06-10T19:13:31.781Z,5
2017-06-10T19:14:33.211Z,5
2017-06-10T19:15:34.647Z,5
2017-06-10T19:16:36.107Z,5
2017-06-10T19:17:37.539Z,5
2017-06-10T19:18:38.978Z,5
2017-06-10T19:19:40.426Z,5
2017-06-10T19:20:41.861Z,5
2017-06-10T19:21:43.301Z,5
2017-06-10T19:22:44.737Z,5
2017-06-10T19:23:46.173Z,5
2017-06-10T19:24:47.595Z,5
2017-06-10T19:25:49.038Z,5
2017-06-10T19:26:50.461Z,5
2017-06-10T19:27:51.904Z,5
2017-06-10T19:28:53.340Z,5
2017-06-10T19:29:54.782Z,5
2017-06-10T19:30:56.230Z,0
2017-06-10T19:31:57.656Z,0
2017-06-10T19:32:59.090Z,0
2017-06-10T19:34:00.518Z,0
2017-06-10T19:35:01.966Z,0
2017-06-10T19:36:03.402Z,0
2017-06-10T19:37:04.840Z,0
2017-06-10T19:38:06.269Z,0
2017-06-10T19:39:07.699Z,0
2017-06-10T19:40:09.133Z,0
2017-06-10T19:41:10.561Z,0
2017-06-10T19:42:11.995Z,0
2017-06-10T19:43:13.421Z,0
2017-06-10T19:44:14.848Z,0
2017-06-10T19:45:16.276Z,0
2017-06-10T19:46:17.709Z,0
2017-06-10T19:47:19.138Z,0
2017-06-10T19:48:20.566Z,0
2017-06-10T19:49:22.000Z,0
2017-06-10T19:50:23.435Z,0
2017-06-10T19:51:24.868Z,0
2017-06-10T19:52:26.308Z,0
2017-06-10T19:53:27.737Z,0
2017-06-10T19:54:29.167Z,0
2017-06-10T19:55:30.606Z,0
2017-06-10T19:56:32.032Z,0
2017-06-10T19:57:33.463Z,0
2017-06-10T19:58:34.893Z,0
2017-06-10T19:59:36.340Z,0
2017-06-10T20:00:37.768Z,0
2017-06-10T20:01:39.205Z,0
2017-06-10T20:02:40.641Z,0
2017-06-10T20:03:42.067Z,0
2017-06-10T20:04:43.497Z,0
2017-06-10T20:05:44.927Z,0
2017-06-10T20:06:46.363Z,0
2017-06-10T20:07:47.791Z,0
2017-06-10T20:08:49.219Z,0
2017-06-10T20:09:50.647Z,0
2017-06-10T20:10:52.076Z,0
2017-06-10T20:11:53.516Z,0
2017-06-10T20:12:54.942Z,0
2017-06-10T20:13:56.378Z,0
2017-06-10T20:14:57.812Z,0
2017-06-10T20:15:59.241Z,0
2017-06-10T20:17:00.673Z,0
2017-06-10T20:18:02.106Z,0
2017-06-10T20:19:03.535Z,0
2017-06-10T20:20:04.967Z,0
2017-06-10T20:21:06.402Z,0